sensor_id;sensor_type;location;lat;lon;timestamp;temperature;humidity
17827;DHT22;9038;48.208;16.308;2022-12-07T00:01:43;6.70;67.60
17827;DHT22;9038;48.208;16.308;2022-12-07T00:03:46;6.60;67.90
17827;DHT22;9038;48.208;16.308;2022-12-07T00:05:48;6.60;67.80
17827;DHT22;9038;48.208;16.308;2022-12-07T00:07:50;6.60;68.00
17827;DHT22;9038;48.208;16.308;2022-12-07T00:09:52;6.60;67.90
17827;DHT22;9038;48.208;16.308;2022-12-07T00:11:54;6.60;67.70
17827;DHT22;9038;48.208;16.308;2022-12-07T00:13:58;6.60;67.90
17827;DHT22;9038;48.208;16.308;2022-12-07T00:16:03;6.60;68.10
17827;DHT22;9038;48.208;16.308;2022-12-07T00:18:05;6.60;67.80
17827;DHT22;9038;48.208;16.308;2022-12-07T00:20:08;6.60;68.00
17827;DHT22;9038;48.208;16.308;2022-12-07T00:22:10;6.60;68.10
17827;DHT22;9038;48.208;16.308;2022-12-07T00:24:12;6.60;68.20
17827;DHT22;9038;48.208;16.308;2022-12-07T00:26:16;6.60;68.40
17827;DHT22;9038;48.208;16.308;2022-12-07T00:28:18;6.60;68.00
17827;DHT22;9038;48.208;16.308;2022-12-07T00:30:20;6.60;68.10
17827;DHT22;9038;48.208;16.308;2022-12-07T00:32:23;6.60;68.10
17827;DHT22;9038;48.208;16.308;2022-12-07T00:34:25;6.60;68.60
17827;DHT22;9038;48.208;16.308;2022-12-07T00:36:27;6.60;68.50
17827;DHT22;9038;48.208;16.308;2022-12-07T00:38:30;6.60;68.70
17827;DHT22;9038;48.208;16.308;2022-12-07T00:40:32;6.60;68.80
17827;DHT22;9038;48.208;16.308;2022-12-07T00:42:34;6.50;68.70
17827;DHT22;9038;48.208;16.308;2022-12-07T00:44:36;6.40;69.20
17827;DHT22;9038;48.208;16.308;2022-12-07T00:46:38;6.50;69.20
17827;DHT22;9038;48.208;16.308;2022-12-07T00:48:41;6.50;69.40
17827;DHT22;9038;48.208;16.308;2022-12-07T00:50:44;6.50;69.20
17827;DHT22;9038;48.208;16.308;2022-12-07T00:52:46;6.50;69.40
17827;DHT22;9038;48.208;16.308;2022-12-07T00:54:48;6.50;69.50
17827;DHT22;9038;48.208;16.308;2022-12-07T00:56:49;6.50;69.60
17827;DHT22;9038;48.208;16.308;2022-12-07T00:58:53;6.50;69.60
17827;DHT22;9038;48.208;16.308;2022-12-07T01:01:00;6.50;69.80
17827;DHT22;9038;48.208;16.308;2022-12-07T01:03:02;6.40;69.80
17827;DHT22;9038;48.208;16.308;2022-12-07T01:05:06;6.40;69.80
17827;DHT22;9038;48.208;16.308;2022-12-07T01:07:08;6.50;70.10
17827;DHT22;9038;48.208;16.308;2022-12-07T01:09:10;6.50;69.90
17827;DHT22;9038;48.208;16.308;2022-12-07T01:11:14;6.50;69.70
17827;DHT22;9038;48.208;16.308;2022-12-07T01:13:16;6.40;69.90
17827;DHT22;9038;48.208;16.308;2022-12-07T01:15:18;6.40;71.00
17827;DHT22;9038;48.208;16.308;2022-12-07T01:17:20;6.30;70.20
17827;DHT22;9038;48.208;16.308;2022-12-07T01:19:22;6.30;70.20
17827;DHT22;9038;48.208;16.308;2022-12-07T01:21:27;6.30;70.20
17827;DHT22;9038;48.208;16.308;2022-12-07T01:23:29;6.30;70.20
17827;DHT22;9038;48.208;16.308;2022-12-07T01:25:31;6.20;70.10
17827;DHT22;9038;48.208;16.308;2022-12-07T01:27:34;6.20;70.30
17827;DHT22;9038;48.208;16.308;2022-12-07T01:29:36;6.20;70.80
17827;DHT22;9038;48.208;16.308;2022-12-07T01:31:38;6.20;70.80
17827;DHT22;9038;48.208;16.308;2022-12-07T01:33:41;6.30;70.60
17827;DHT22;9038;48.208;16.308;2022-12-07T01:35:43;6.30;70.30
17827;DHT22;9038;48.208;16.308;2022-12-07T01:37:46;6.30;70.90
17827;DHT22;9038;48.208;16.308;2022-12-07T01:39:48;6.30;70.70
17827;DHT22;9038;48.208;16.308;2022-12-07T01:41:51;6.30;70.90
17827;DHT22;9038;48.208;16.308;2022-12-07T01:44:09;6.40;70.90
17827;DHT22;9038;48.208;16.308;2022-12-07T01:46:11;6.40;70.30
17827;DHT22;9038;48.208;16.308;2022-12-07T01:48:16;6.40;70.30
17827;DHT22;9038;48.208;16.308;2022-12-07T01:50:19;6.40;70.40
17827;DHT22;9038;48.208;16.308;2022-12-07T01:52:25;6.40;70.90
17827;DHT22;9038;48.208;16.308;2022-12-07T01:54:30;6.40;71.00
17827;DHT22;9038;48.208;16.308;2022-12-07T01:56:33;6.40;71.00
17827;DHT22;9038;48.208;16.308;2022-12-07T01:58:35;6.40;71.20
17827;DHT22;9038;48.208;16.308;2022-12-07T02:00:38;6.40;71.20
17827;DHT22;9038;48.208;16.308;2022-12-07T02:02:44;6.40;71.00
17827;DHT22;9038;48.208;16.308;2022-12-07T02:04:47;6.40;70.90
17827;DHT22;9038;48.208;16.308;2022-12-07T02:06:50;6.40;71.00
17827;DHT22;9038;48.208;16.308;2022-12-07T02:08:52;6.30;70.80
17827;DHT22;9038;48.208;16.308;2022-12-07T02:10:56;6.30;70.90
17827;DHT22;9038;48.208;16.308;2022-12-07T02:13:01;6.40;71.00
17827;DHT22;9038;48.208;16.308;2022-12-07T02:15:03;6.40;71.10
17827;DHT22;9038;48.208;16.308;2022-12-07T02:17:12;6.40;70.40
17827;DHT22;9038;48.208;16.308;2022-12-07T02:19:58;6.40;71.00
17827;DHT22;9038;48.208;16.308;2022-12-07T02:22:14;6.40;70.80
17827;DHT22;9038;48.208;16.308;2022-12-07T02:24:35;6.40;70.30
17827;DHT22;9038;48.208;16.308;2022-12-07T02:27:10;6.40;70.40
17827;DHT22;9038;48.208;16.308;2022-12-07T02:29:21;6.40;70.80
17827;DHT22;9038;48.208;16.308;2022-12-07T02:31:24;6.40;70.70
17827;DHT22;9038;48.208;16.308;2022-12-07T02:33:32;6.40;71.00
17827;DHT22;9038;48.208;16.308;2022-12-07T02:35:41;6.40;70.30
17827;DHT22;9038;48.208;16.308;2022-12-07T02:37:51;6.40;71.00
17827;DHT22;9038;48.208;16.308;2022-12-07T02:39:59;6.40;71.00
17827;DHT22;9038;48.208;16.308;2022-12-07T02:42:10;6.40;70.40
17827;DHT22;9038;48.208;16.308;2022-12-07T02:44:17;6.40;70.40
17827;DHT22;9038;48.208;16.308;2022-12-07T02:46:24;6.40;70.30
17827;DHT22;9038;48.208;16.308;2022-12-07T02:48:27;6.50;70.40
17827;DHT22;9038;48.208;16.308;2022-12-07T02:50:29;6.50;70.50
17827;DHT22;9038;48.208;16.308;2022-12-07T02:52:34;6.50;70.60
17827;DHT22;9038;48.208;16.308;2022-12-07T02:54:36;6.50;70.40
17827;DHT22;9038;48.208;16.308;2022-12-07T02:56:45;6.50;70.40
17827;DHT22;9038;48.208;16.308;2022-12-07T02:58:59;6.50;70.50
17827;DHT22;9038;48.208;16.308;2022-12-07T03:01:08;6.50;70.40
17827;DHT22;9038;48.208;16.308;2022-12-07T03:03:16;6.50;70.40
17827;DHT22;9038;48.208;16.308;2022-12-07T03:05:27;6.40;70.40
17827;DHT22;9038;48.208;16.308;2022-12-07T03:07:36;6.40;70.40
17827;DHT22;9038;48.208;16.308;2022-12-07T03:09:45;6.40;70.60
17827;DHT22;9038;48.208;16.308;2022-12-07T03:11:58;6.40;70.80
17827;DHT22;9038;48.208;16.308;2022-12-07T03:14:11;6.40;70.30
17827;DHT22;9038;48.208;16.308;2022-12-07T03:16:16;6.40;70.40
17827;DHT22;9038;48.208;16.308;2022-12-07T03:18:22;6.40;70.90
17827;DHT22;9038;48.208;16.308;2022-12-07T03:20:26;6.40;70.60
17827;DHT22;9038;48.208;16.308;2022-12-07T03:22:32;6.40;70.80
17827;DHT22;9038;48.208;16.308;2022-12-07T03:24:39;6.40;70.40
17827;DHT22;9038;48.208;16.308;2022-12-07T03:26:48;6.50;70.60
17827;DHT22;9038;48.208;16.308;2022-12-07T03:28:54;6.40;70.30
17827;DHT22;9038;48.208;16.308;2022-12-07T03:31:00;6.40;70.80
17827;DHT22;9038;48.208;16.308;2022-12-07T03:33:07;6.40;71.20
17827;DHT22;9038;48.208;16.308;2022-12-07T03:35:15;6.40;71.20
17827;DHT22;9038;48.208;16.308;2022-12-07T03:37:26;6.40;71.50
17827;DHT22;9038;48.208;16.308;2022-12-07T03:39:34;6.40;71.40
17827;DHT22;9038;48.208;16.308;2022-12-07T03:41:39;6.40;71.60
17827;DHT22;9038;48.208;16.308;2022-12-07T03:43:41;6.50;71.30
17827;DHT22;9038;48.208;16.308;2022-12-07T03:45:48;6.40;71.20
17827;DHT22;9038;48.208;16.308;2022-12-07T03:48:02;6.40;71.30
17827;DHT22;9038;48.208;16.308;2022-12-07T03:50:09;6.40;71.40
17827;DHT22;9038;48.208;16.308;2022-12-07T03:52:22;6.30;71.40
17827;DHT22;9038;48.208;16.308;2022-12-07T03:54:29;6.30;71.50
17827;DHT22;9038;48.208;16.308;2022-12-07T03:56:33;6.30;71.40
17827;DHT22;9038;48.208;16.308;2022-12-07T03:58:36;6.40;71.40
17827;DHT22;9038;48.208;16.308;2022-12-07T04:00:38;6.40;71.30
17827;DHT22;9038;48.208;16.308;2022-12-07T04:02:42;6.40;71.30
17827;DHT22;9038;48.208;16.308;2022-12-07T04:04:44;6.40;71.30
17827;DHT22;9038;48.208;16.308;2022-12-07T04:06:46;6.40;71.30
17827;DHT22;9038;48.208;16.308;2022-12-07T04:08:49;6.40;71.30
17827;DHT22;9038;48.208;16.308;2022-12-07T04:10:51;6.40;71.50
17827;DHT22;9038;48.208;16.308;2022-12-07T04:12:53;6.40;71.30
17827;DHT22;9038;48.208;16.308;2022-12-07T04:14:55;6.40;71.40
17827;DHT22;9038;48.208;16.308;2022-12-07T04:16:58;6.40;71.40
17827;DHT22;9038;48.208;16.308;2022-12-07T04:19:00;6.40;71.30
17827;DHT22;9038;48.208;16.308;2022-12-07T04:21:01;6.40;71.20
17827;DHT22;9038;48.208;16.308;2022-12-07T04:23:03;6.30;71.40
17827;DHT22;9038;48.208;16.308;2022-12-07T04:25:07;6.40;71.40
17827;DHT22;9038;48.208;16.308;2022-12-07T04:27:09;6.40;71.30
17827;DHT22;9038;48.208;16.308;2022-12-07T04:29:11;6.40;71.00
17827;DHT22;9038;48.208;16.308;2022-12-07T04:31:14;6.40;71.00
17827;DHT22;9038;48.208;16.308;2022-12-07T04:33:16;6.40;71.20
17827;DHT22;9038;48.208;16.308;2022-12-07T04:35:17;6.50;70.50
17827;DHT22;9038;48.208;16.308;2022-12-07T04:37:19;6.50;70.40
17827;DHT22;9038;48.208;16.308;2022-12-07T04:39:23;6.50;70.40
17827;DHT22;9038;48.208;16.308;2022-12-07T04:41:26;6.50;70.40
17827;DHT22;9038;48.208;16.308;2022-12-07T04:43:28;6.50;70.40
17827;DHT22;9038;48.208;16.308;2022-12-07T04:45:30;6.50;70.40
17827;DHT22;9038;48.208;16.308;2022-12-07T04:47:32;6.50;70.40
17827;DHT22;9038;48.208;16.308;2022-12-07T04:49:34;6.50;70.40
17827;DHT22;9038;48.208;16.308;2022-12-07T04:51:36;6.50;70.00
17827;DHT22;9038;48.208;16.308;2022-12-07T04:53:38;6.50;70.00
17827;DHT22;9038;48.208;16.308;2022-12-07T04:55:40;6.50;70.30
17827;DHT22;9038;48.208;16.308;2022-12-07T04:57:43;6.50;70.30
17827;DHT22;9038;48.208;16.308;2022-12-07T04:59:45;6.50;70.10
17827;DHT22;9038;48.208;16.308;2022-12-07T05:01:47;6.50;70.00
17827;DHT22;9038;48.208;16.308;2022-12-07T05:03:50;6.50;69.90
17827;DHT22;9038;48.208;16.308;2022-12-07T05:05:52;6.50;69.90
17827;DHT22;9038;48.208;16.308;2022-12-07T05:07:54;6.50;69.90
17827;DHT22;9038;48.208;16.308;2022-12-07T05:09:56;6.50;69.90
17827;DHT22;9038;48.208;16.308;2022-12-07T05:11:57;6.50;69.70
17827;DHT22;9038;48.208;16.308;2022-12-07T05:14:01;6.60;69.60
17827;DHT22;9038;48.208;16.308;2022-12-07T05:16:04;6.60;69.10
17827;DHT22;9038;48.208;16.308;2022-12-07T05:18:06;6.60;69.30
17827;DHT22;9038;48.208;16.308;2022-12-07T05:20:08;6.60;69.20
17827;DHT22;9038;48.208;16.308;2022-12-07T05:22:10;6.60;69.20
17827;DHT22;9038;48.208;16.308;2022-12-07T05:24:15;6.50;69.40
17827;DHT22;9038;48.208;16.308;2022-12-07T05:26:18;6.50;69.50
17827;DHT22;9038;48.208;16.308;2022-12-07T05:28:20;6.50;69.50
17827;DHT22;9038;48.208;16.308;2022-12-07T05:30:24;6.50;69.30
17827;DHT22;9038;48.208;16.308;2022-12-07T05:32:26;6.50;69.20
17827;DHT22;9038;48.208;16.308;2022-12-07T05:34:28;6.50;69.20
17827;DHT22;9038;48.208;16.308;2022-12-07T05:36:30;6.50;69.10
17827;DHT22;9038;48.208;16.308;2022-12-07T05:38:32;6.50;68.90
17827;DHT22;9038;48.208;16.308;2022-12-07T05:40:34;6.50;68.90
17827;DHT22;9038;48.208;16.308;2022-12-07T05:42:37;6.50;68.50
17827;DHT22;9038;48.208;16.308;2022-12-07T05:44:40;6.50;68.40
17827;DHT22;9038;48.208;16.308;2022-12-07T05:46:43;6.50;68.50
17827;DHT22;9038;48.208;16.308;2022-12-07T05:48:45;6.60;68.20
17827;DHT22;9038;48.208;16.308;2022-12-07T05:50:47;6.60;68.10
17827;DHT22;9038;48.208;16.308;2022-12-07T05:52:49;6.60;68.00
17827;DHT22;9038;48.208;16.308;2022-12-07T05:54:51;6.60;68.30
17827;DHT22;9038;48.208;16.308;2022-12-07T05:56:53;6.60;68.00
17827;DHT22;9038;48.208;16.308;2022-12-07T05:58:55;6.60;68.10
17827;DHT22;9038;48.208;16.308;2022-12-07T06:01:14;6.60;68.00
17827;DHT22;9038;48.208;16.308;2022-12-07T06:03:18;6.60;68.00
17827;DHT22;9038;48.208;16.308;2022-12-07T06:05:20;6.60;68.10
17827;DHT22;9038;48.208;16.308;2022-12-07T06:07:21;6.60;68.10
17827;DHT22;9038;48.208;16.308;2022-12-07T06:09:24;6.70;67.90
17827;DHT22;9038;48.208;16.308;2022-12-07T06:11:27;6.60;68.00
17827;DHT22;9038;48.208;16.308;2022-12-07T06:13:46;6.60;67.50
17827;DHT22;9038;48.208;16.308;2022-12-07T06:15:48;6.60;67.50
17827;DHT22;9038;48.208;16.308;2022-12-07T06:17:50;6.70;67.60
17827;DHT22;9038;48.208;16.308;2022-12-07T06:19:53;6.70;67.60
17827;DHT22;9038;48.208;16.308;2022-12-07T06:21:55;6.60;67.30
17827;DHT22;9038;48.208;16.308;2022-12-07T06:23:57;6.60;67.50
17827;DHT22;9038;48.208;16.308;2022-12-07T06:25:59;6.70;67.40
17827;DHT22;9038;48.208;16.308;2022-12-07T06:28:01;6.70;67.30
17827;DHT22;9038;48.208;16.308;2022-12-07T06:30:04;6.70;67.30
17827;DHT22;9038;48.208;16.308;2022-12-07T06:32:09;6.70;67.40
17827;DHT22;9038;48.208;16.308;2022-12-07T06:34:13;6.60;68.30
17827;DHT22;9038;48.208;16.308;2022-12-07T06:36:16;6.60;67.50
17827;DHT22;9038;48.208;16.308;2022-12-07T06:38:18;6.70;69.10
17827;DHT22;9038;48.208;16.308;2022-12-07T06:40:20;6.70;68.50
17827;DHT22;9038;48.208;16.308;2022-12-07T06:42:22;6.70;68.40
17827;DHT22;9038;48.208;16.308;2022-12-07T06:44:24;6.70;68.30
17827;DHT22;9038;48.208;16.308;2022-12-07T06:46:26;6.70;67.70
17827;DHT22;9038;48.208;16.308;2022-12-07T06:48:28;6.80;67.30
17827;DHT22;9038;48.208;16.308;2022-12-07T06:50:30;6.70;66.60
17827;DHT22;9038;48.208;16.308;2022-12-07T06:52:33;6.70;66.90
17827;DHT22;9038;48.208;16.308;2022-12-07T06:54:35;6.70;66.60
17827;DHT22;9038;48.208;16.308;2022-12-07T06:56:37;6.70;66.60
17827;DHT22;9038;48.208;16.308;2022-12-07T06:58:39;6.70;66.60
17827;DHT22;9038;48.208;16.308;2022-12-07T07:00:41;6.70;66.60
17827;DHT22;9038;48.208;16.308;2022-12-07T07:02:43;6.80;66.50
17827;DHT22;9038;48.208;16.308;2022-12-07T07:04:45;6.80;66.70
17827;DHT22;9038;48.208;16.308;2022-12-07T07:06:47;6.80;66.70
17827;DHT22;9038;48.208;16.308;2022-12-07T07:08:51;6.80;66.30
17827;DHT22;9038;48.208;16.308;2022-12-07T07:10:52;6.80;66.20
17827;DHT22;9038;48.208;16.308;2022-12-07T07:12:54;6.90;66.00
17827;DHT22;9038;48.208;16.308;2022-12-07T07:14:56;6.90;66.10
17827;DHT22;9038;48.208;16.308;2022-12-07T07:16:58;6.80;66.20
17827;DHT22;9038;48.208;16.308;2022-12-07T07:19:00;6.90;65.90
17827;DHT22;9038;48.208;16.308;2022-12-07T07:21:02;6.90;66.00
17827;DHT22;9038;48.208;16.308;2022-12-07T07:23:05;7.00;65.60
17827;DHT22;9038;48.208;16.308;2022-12-07T07:25:09;7.00;65.50
17827;DHT22;9038;48.208;16.308;2022-12-07T07:27:10;7.10;65.30
17827;DHT22;9038;48.208;16.308;2022-12-07T07:29:12;7.10;65.60
17827;DHT22;9038;48.208;16.308;2022-12-07T07:31:14;7.10;65.40
17827;DHT22;9038;48.208;16.308;2022-12-07T07:33:16;7.10;65.10
17827;DHT22;9038;48.208;16.308;2022-12-07T07:35:18;7.10;65.00
17827;DHT22;9038;48.208;16.308;2022-12-07T07:37:20;7.10;65.10
17827;DHT22;9038;48.208;16.308;2022-12-07T07:39:22;7.20;65.20
17827;DHT22;9038;48.208;16.308;2022-12-07T07:41:25;7.20;65.10
17827;DHT22;9038;48.208;16.308;2022-12-07T07:43:27;7.20;65.00
17827;DHT22;9038;48.208;16.308;2022-12-07T07:45:29;7.20;65.00
17827;DHT22;9038;48.208;16.308;2022-12-07T07:47:31;7.30;65.00
17827;DHT22;9038;48.208;16.308;2022-12-07T07:49:33;7.20;64.80
17827;DHT22;9038;48.208;16.308;2022-12-07T07:51:35;7.30;64.80
17827;DHT22;9038;48.208;16.308;2022-12-07T07:53:37;7.30;64.70
17827;DHT22;9038;48.208;16.308;2022-12-07T07:55:39;7.30;64.20
17827;DHT22;9038;48.208;16.308;2022-12-07T07:57:42;7.30;64.40
17827;DHT22;9038;48.208;16.308;2022-12-07T07:59:44;7.30;64.20
17827;DHT22;9038;48.208;16.308;2022-12-07T08:01:46;7.20;64.30
17827;DHT22;9038;48.208;16.308;2022-12-07T08:03:48;7.20;65.80
17827;DHT22;9038;48.208;16.308;2022-12-07T08:05:50;7.20;65.10
17827;DHT22;9038;48.208;16.308;2022-12-07T08:07:52;7.10;65.00
17827;DHT22;9038;48.208;16.308;2022-12-07T08:09:54;7.20;65.20
17827;DHT22;9038;48.208;16.308;2022-12-07T08:11:57;7.20;65.10
17827;DHT22;9038;48.208;16.308;2022-12-07T08:14:00;7.30;65.10
17827;DHT22;9038;48.208;16.308;2022-12-07T08:16:04;7.30;65.00
17827;DHT22;9038;48.208;16.308;2022-12-07T08:18:07;7.40;65.50
17827;DHT22;9038;48.208;16.308;2022-12-07T08:20:09;7.50;64.30
17827;DHT22;9038;48.208;16.308;2022-12-07T08:22:11;7.50;64.20
17827;DHT22;9038;48.208;16.308;2022-12-07T08:24:13;7.60;63.90
17827;DHT22;9038;48.208;16.308;2022-12-07T08:26:16;7.70;64.20
17827;DHT22;9038;48.208;16.308;2022-12-07T08:28:18;7.90;63.90
17827;DHT22;9038;48.208;16.308;2022-12-07T08:30:22;8.00;62.90
17827;DHT22;9038;48.208;16.308;2022-12-07T08:32:24;7.90;62.70
17827;DHT22;9038;48.208;16.308;2022-12-07T08:34:26;8.00;63.30
17827;DHT22;9038;48.208;16.308;2022-12-07T08:36:28;8.00;62.60
17827;DHT22;9038;48.208;16.308;2022-12-07T08:38:30;8.00;62.80
17827;DHT22;9038;48.208;16.308;2022-12-07T08:40:32;8.00;62.70
17827;DHT22;9038;48.208;16.308;2022-12-07T08:42:34;8.00;62.30
17827;DHT22;9038;48.208;16.308;2022-12-07T08:44:40;8.00;60.90
17827;DHT22;9038;48.208;16.308;2022-12-07T08:46:46;8.00;61.10
17827;DHT22;9038;48.208;16.308;2022-12-07T08:48:53;7.90;60.90
17827;DHT22;9038;48.208;16.308;2022-12-07T08:50:57;8.00;60.60
17827;DHT22;9038;48.208;16.308;2022-12-07T08:52:59;8.10;60.50
17827;DHT22;9038;48.208;16.308;2022-12-07T08:55:02;8.00;59.60
17827;DHT22;9038;48.208;16.308;2022-12-07T08:57:05;7.90;59.70
17827;DHT22;9038;48.208;16.308;2022-12-07T08:59:08;7.90;59.80
17827;DHT22;9038;48.208;16.308;2022-12-07T09:01:10;7.90;59.70
17827;DHT22;9038;48.208;16.308;2022-12-07T09:03:13;8.00;59.80
17827;DHT22;9038;48.208;16.308;2022-12-07T09:05:15;8.00;59.30
17827;DHT22;9038;48.208;16.308;2022-12-07T09:07:17;8.10;58.60
17827;DHT22;9038;48.208;16.308;2022-12-07T09:09:19;8.20;59.00
17827;DHT22;9038;48.208;16.308;2022-12-07T09:11:21;8.30;58.70
17827;DHT22;9038;48.208;16.308;2022-12-07T09:13:23;8.30;58.30
17827;DHT22;9038;48.208;16.308;2022-12-07T09:15:25;8.40;58.40
17827;DHT22;9038;48.208;16.308;2022-12-07T09:17:27;8.40;57.90
17827;DHT22;9038;48.208;16.308;2022-12-07T09:19:34;8.40;57.60
17827;DHT22;9038;48.208;16.308;2022-12-07T09:21:36;8.40;57.60
17827;DHT22;9038;48.208;16.308;2022-12-07T09:23:38;8.30;57.60
17827;DHT22;9038;48.208;16.308;2022-12-07T09:25:40;8.20;57.50
17827;DHT22;9038;48.208;16.308;2022-12-07T09:27:42;8.00;57.60
17827;DHT22;9038;48.208;16.308;2022-12-07T09:29:44;7.80;57.40
17827;DHT22;9038;48.208;16.308;2022-12-07T09:31:46;7.70;58.20
17827;DHT22;9038;48.208;16.308;2022-12-07T09:33:54;7.60;58.60
17827;DHT22;9038;48.208;16.308;2022-12-07T09:35:57;7.50;59.00
17827;DHT22;9038;48.208;16.308;2022-12-07T09:37:59;7.40;59.30
17827;DHT22;9038;48.208;16.308;2022-12-07T09:40:02;7.40;59.60
17827;DHT22;9038;48.208;16.308;2022-12-07T09:42:05;7.40;59.40
17827;DHT22;9038;48.208;16.308;2022-12-07T09:44:10;7.30;60.00
17827;DHT22;9038;48.208;16.308;2022-12-07T09:46:15;7.30;60.40
17827;DHT22;9038;48.208;16.308;2022-12-07T09:48:20;7.30;60.30
17827;DHT22;9038;48.208;16.308;2022-12-07T09:50:25;7.30;60.30
17827;DHT22;9038;48.208;16.308;2022-12-07T09:52:29;7.40;59.80
17827;DHT22;9038;48.208;16.308;2022-12-07T09:54:33;7.50;59.50
17827;DHT22;9038;48.208;16.308;2022-12-07T09:56:36;7.50;59.70
17827;DHT22;9038;48.208;16.308;2022-12-07T09:58:39;7.60;59.50
17827;DHT22;9038;48.208;16.308;2022-12-07T10:00:40;7.60;59.50
17827;DHT22;9038;48.208;16.308;2022-12-07T10:02:44;7.70;59.40
17827;DHT22;9038;48.208;16.308;2022-12-07T10:04:46;7.70;59.20
17827;DHT22;9038;48.208;16.308;2022-12-07T10:06:48;7.80;59.10
17827;DHT22;9038;48.208;16.308;2022-12-07T10:08:52;7.80;58.40
17827;DHT22;9038;48.208;16.308;2022-12-07T10:10:56;7.90;58.10
17827;DHT22;9038;48.208;16.308;2022-12-07T10:13:00;7.90;57.90
17827;DHT22;9038;48.208;16.308;2022-12-07T10:15:04;7.90;57.70
17827;DHT22;9038;48.208;16.308;2022-12-07T10:17:26;8.00;56.70
17827;DHT22;9038;48.208;16.308;2022-12-07T10:19:32;8.10;56.30
17827;DHT22;9038;48.208;16.308;2022-12-07T10:21:34;8.20;56.50
17827;DHT22;9038;48.208;16.308;2022-12-07T10:23:37;8.30;55.90
17827;DHT22;9038;48.208;16.308;2022-12-07T10:25:41;8.30;54.40
17827;DHT22;9038;48.208;16.308;2022-12-07T10:27:43;8.30;54.10
17827;DHT22;9038;48.208;16.308;2022-12-07T10:29:48;8.30;54.60
17827;DHT22;9038;48.208;16.308;2022-12-07T10:31:56;8.40;54.50
17827;DHT22;9038;48.208;16.308;2022-12-07T10:34:00;8.40;53.20
17827;DHT22;9038;48.208;16.308;2022-12-07T10:36:17;8.40;53.50
17827;DHT22;9038;48.208;16.308;2022-12-07T10:38:19;8.30;52.80
17827;DHT22;9038;48.208;16.308;2022-12-07T10:40:31;8.20;52.80
17827;DHT22;9038;48.208;16.308;2022-12-07T10:42:35;8.10;53.40
17827;DHT22;9038;48.208;16.308;2022-12-07T10:44:37;8.00;53.40
17827;DHT22;9038;48.208;16.308;2022-12-07T10:51:40;8.10;54.80
17827;DHT22;9038;48.208;16.308;2022-12-07T10:53:54;8.20;54.30
17827;DHT22;9038;48.208;16.308;2022-12-07T10:56:17;8.20;54.30
17827;DHT22;9038;48.208;16.308;2022-12-07T10:58:31;8.30;54.80
17827;DHT22;9038;48.208;16.308;2022-12-07T11:00:44;8.30;54.80
17827;DHT22;9038;48.208;16.308;2022-12-07T11:03:12;8.30;54.10
17827;DHT22;9038;48.208;16.308;2022-12-07T11:05:22;8.20;54.00
17827;DHT22;9038;48.208;16.308;2022-12-07T11:07:38;8.10;53.70
17827;DHT22;9038;48.208;16.308;2022-12-07T11:09:52;8.10;53.80
17827;DHT22;9038;48.208;16.308;2022-12-07T11:12:05;8.10;53.70
17827;DHT22;9038;48.208;16.308;2022-12-07T11:14:20;8.20;54.00
17827;DHT22;9038;48.208;16.308;2022-12-07T11:16:36;8.20;53.70
17827;DHT22;9038;48.208;16.308;2022-12-07T11:18:48;8.20;53.30
17827;DHT22;9038;48.208;16.308;2022-12-07T11:20:58;8.20;53.40
17827;DHT22;9038;48.208;16.308;2022-12-07T11:23:13;8.20;53.30
17827;DHT22;9038;48.208;16.308;2022-12-07T11:25:24;8.30;53.20
17827;DHT22;9038;48.208;16.308;2022-12-07T11:27:36;8.40;52.90
17827;DHT22;9038;48.208;16.308;2022-12-07T11:29:58;8.50;52.80
17827;DHT22;9038;48.208;16.308;2022-12-07T11:32:08;8.60;52.10
17827;DHT22;9038;48.208;16.308;2022-12-07T11:34:19;8.60;51.60
17827;DHT22;9038;48.208;16.308;2022-12-07T11:36:35;8.40;51.30
17827;DHT22;9038;48.208;16.308;2022-12-07T11:38:43;8.20;51.70
17827;DHT22;9038;48.208;16.308;2022-12-07T11:40:49;8.10;52.30
17827;DHT22;9038;48.208;16.308;2022-12-07T11:42:54;7.90;52.30
17827;DHT22;9038;48.208;16.308;2022-12-07T11:45:03;7.80;52.80
17827;DHT22;9038;48.208;16.308;2022-12-07T11:47:16;7.70;52.50
17827;DHT22;9038;48.208;16.308;2022-12-07T11:49:27;7.50;52.40
17827;DHT22;9038;48.208;16.308;2022-12-07T11:51:38;7.40;52.70
17827;DHT22;9038;48.208;16.308;2022-12-07T11:53:45;7.30;53.30
17827;DHT22;9038;48.208;16.308;2022-12-07T11:55:50;7.20;53.80
17827;DHT22;9038;48.208;16.308;2022-12-07T11:58:01;7.20;53.50
17827;DHT22;9038;48.208;16.308;2022-12-07T12:00:14;7.10;53.60
17827;DHT22;9038;48.208;16.308;2022-12-07T12:02:22;7.10;53.80
17827;DHT22;9038;48.208;16.308;2022-12-07T12:04:31;7.10;54.20
17827;DHT22;9038;48.208;16.308;2022-12-07T12:06:34;7.10;54.50
17827;DHT22;9038;48.208;16.308;2022-12-07T12:08:41;7.10;54.50
17827;DHT22;9038;48.208;16.308;2022-12-07T12:10:54;7.10;54.30
17827;DHT22;9038;48.208;16.308;2022-12-07T12:15:51;7.20;54.70
17827;DHT22;9038;48.208;16.308;2022-12-07T12:18:21;7.30;54.00
17827;DHT22;9038;48.208;16.308;2022-12-07T12:20:29;7.30;53.60
17827;DHT22;9038;48.208;16.308;2022-12-07T12:22:36;7.20;53.60
17827;DHT22;9038;48.208;16.308;2022-12-07T12:24:40;7.20;53.90
17827;DHT22;9038;48.208;16.308;2022-12-07T12:26:50;7.20;54.30
17827;DHT22;9038;48.208;16.308;2022-12-07T12:28:56;7.30;54.70
17827;DHT22;9038;48.208;16.308;2022-12-07T12:31:11;7.40;55.30
17827;DHT22;9038;48.208;16.308;2022-12-07T12:33:19;7.50;54.40
17827;DHT22;9038;48.208;16.308;2022-12-07T12:35:29;7.60;54.30
17827;DHT22;9038;48.208;16.308;2022-12-07T12:37:44;7.60;54.00
17827;DHT22;9038;48.208;16.308;2022-12-07T12:42:43;7.60;53.60
17827;DHT22;9038;48.208;16.308;2022-12-07T12:45:20;7.60;53.30
17827;DHT22;9038;48.208;16.308;2022-12-07T12:47:43;7.60;53.70
17827;DHT22;9038;48.208;16.308;2022-12-07T12:50:15;7.70;54.00
17827;DHT22;9038;48.208;16.308;2022-12-07T12:52:58;7.70;54.20
17827;DHT22;9038;48.208;16.308;2022-12-07T12:55:13;7.60;53.50
17827;DHT22;9038;48.208;16.308;2022-12-07T12:57:24;7.60;53.20
17827;DHT22;9038;48.208;16.308;2022-12-07T12:59:29;7.50;53.10
17827;DHT22;9038;48.208;16.308;2022-12-07T13:01:41;7.50;53.60
17827;DHT22;9038;48.208;16.308;2022-12-07T13:03:53;7.50;53.80
17827;DHT22;9038;48.208;16.308;2022-12-07T13:06:17;7.50;53.70
17827;DHT22;9038;48.208;16.308;2022-12-07T13:08:21;7.50;53.70
17827;DHT22;9038;48.208;16.308;2022-12-07T13:10:47;7.50;53.80
17827;DHT22;9038;48.208;16.308;2022-12-07T13:12:56;7.30;54.30
17827;DHT22;9038;48.208;16.308;2022-12-07T13:14:59;7.20;54.50
17827;DHT22;9038;48.208;16.308;2022-12-07T13:17:01;7.20;55.20
17827;DHT22;9038;48.208;16.308;2022-12-07T13:21:59;7.20;55.40
17827;DHT22;9038;48.208;16.308;2022-12-07T13:24:01;7.20;55.20
17827;DHT22;9038;48.208;16.308;2022-12-07T13:26:15;7.20;55.00
17827;DHT22;9038;48.208;16.308;2022-12-07T13:28:18;7.10;54.90
17827;DHT22;9038;48.208;16.308;2022-12-07T13:30:21;7.10;55.20
17827;DHT22;9038;48.208;16.308;2022-12-07T13:32:24;7.10;54.60
17827;DHT22;9038;48.208;16.308;2022-12-07T13:34:31;7.10;54.90
17827;DHT22;9038;48.208;16.308;2022-12-07T13:36:37;7.10;55.00
17827;DHT22;9038;48.208;16.308;2022-12-07T13:38:49;7.10;55.10